Time;durP1;ratioP1;P1;durP2;ratioP2;P2;SDS_P1;SDS_P2;PMS_P1;PMS_P2;Temp;Humidity;BMP_temperature;BMP_pressure;BME280_temperature;BME280_humidity;BME280_pressure;Samples;Min_cycle;Max_cycle;Signal;HPM_P1;HPM_P2
2021/05/24 00:00:45;;;;;;;7.03;4.50;;;10.90;99.90;;;;;;4720050;30;20187;-84
2021/05/24 00:03:12;;;;;;;7.47;3.90;;;10.90;99.90;;;;;;4719377;30;20273;-84
2021/05/24 00:05:38;;;;;;;6.88;4.60;;;10.80;99.90;;;;;;4719538;30;20223;-84
2021/05/24 00:08:04;;;;;;;6.43;3.80;;;10.90;99.90;;;;;;4735075;30;20183;-84
2021/05/24 00:10:34;;;;;;;11.40;4.18;;;10.90;99.90;;;;;;4719582;30;20541;-84
2021/05/24 00:13:05;;;;;;;7.60;3.33;;;10.90;99.90;;;;;;4719316;30;20279;-85
2021/05/24 00:15:37;;;;;;;9.48;4.10;;;10.90;99.90;;;;;;4719632;30;20189;-84
2021/05/24 00:18:03;;;;;;;5.53;4.10;;;10.80;99.90;;;;;;4734924;30;20266;-84
2021/05/24 00:20:32;;;;;;;8.00;4.50;;;10.80;99.90;;;;;;4713679;30;627654;-84
2021/05/24 00:22:58;;;;;;;8.20;4.57;;;10.80;99.90;;;;;;4735592;30;20258;-84
2021/05/24 00:25:23;;;;;;;7.13;3.85;;;10.80;99.90;;;;;;4735475;30;20265;-84
2021/05/24 00:27:49;;;;;;;6.27;4.10;;;10.90;99.90;;;;;;4719798;30;20592;-84
2021/05/24 00:30:16;;;;;;;11.03;3.77;;;10.90;99.90;;;;;;4719467;30;20223;-84
2021/05/24 00:32:42;;;;;;;7.20;4.20;;;10.80;99.90;;;;;;4735508;30;20245;-83
2021/05/24 00:35:10;;;;;;;8.40;3.30;;;10.90;99.90;;;;;;4735383;30;20195;-84
2021/05/24 00:37:36;;;;;;;5.47;3.40;;;10.50;99.90;;;;;;4719739;30;20268;-84
2021/05/24 00:40:04;;;;;;;4.50;3.60;;;10.90;99.90;;;;;;4735346;30;20187;-84
2021/05/24 00:42:30;;;;;;;5.43;3.70;;;10.90;99.90;;;;;;4735941;30;20270;-84
2021/05/24 00:44:55;;;;;;;5.38;3.30;;;10.90;99.90;;;;;;4719591;30;20294;-84
2021/05/24 00:47:21;;;;;;;8.63;3.50;;;11.00;99.90;;;;;;4735185;30;20265;-84
2021/05/24 00:49:47;;;;;;;10.02;3.90;;;;;;;;;;4705134;30;20223;-82
2021/05/24 00:52:14;;;;;;;5.95;3.40;;;11.00;99.90;;;;;;4734891;30;20187;-83
2021/05/24 00:54:40;;;;;;;6.93;3.60;;;11.00;99.90;;;;;;4734267;30;20187;-82
2021/05/24 00:57:07;;;;;;;4.10;2.50;;;11.10;99.90;;;;;;4719983;30;20621;-83
2021/05/24 00:59:35;;;;;;;4.68;2.55;;;11.20;99.90;;;;;;4735217;30;20187;-83
2021/05/24 01:02:01;;;;;;;6.40;2.83;;;11.30;99.90;;;;;;4734870;30;20187;-87
2021/05/24 01:04:27;;;;;;;3.07;2.30;;;11.30;99.90;;;;;;4734343;30;20191;-83
2021/05/24 01:06:55;;;;;;;4.00;2.42;;;11.30;99.90;;;;;;4719278;30;20250;-83
2021/05/24 01:09:21;;;;;;;3.85;2.40;;;11.40;99.90;;;;;;4734959;30;20215;-84
2021/05/24 01:11:50;;;;;;;4.35;2.63;;;11.40;99.90;;;;;;4719455;30;20199;-83
2021/05/24 01:14:17;;;;;;;4.32;2.95;;;11.40;99.90;;;;;;4719568;30;20282;-84
2021/05/24 01:16:46;;;;;;;9.18;2.38;;;11.40;99.90;;;;;;4735319;30;20187;-83
2021/05/24 01:19:11;;;;;;;9.43;3.63;;;11.40;99.90;;;;;;4734983;30;20192;-84
2021/05/24 01:21:37;;;;;;;3.80;2.83;;;11.20;99.90;;;;;;4719099;30;20301;-83
2021/05/24 01:24:03;;;;;;;4.80;2.80;;;11.30;99.90;;;;;;4734883;30;20257;-84
2021/05/24 01:26:29;;;;;;;3.92;2.80;;;11.20;99.90;;;;;;4735280;30;20187;-84
2021/05/24 01:28:55;;;;;;;4.50;2.97;;;11.20;99.90;;;;;;4719476;30;20222;-83
2021/05/24 01:31:20;;;;;;;5.87;3.57;;;11.20;99.90;;;;;;4735040;30;20195;-84
2021/05/24 01:33:46;;;;;;;5.60;3.95;;;11.10;99.90;;;;;;4735096;30;20184;-84
2021/05/24 01:36:13;;;;;;;7.40;4.00;;;11.10;99.90;;;;;;4719227;30;20261;-84
2021/05/24 01:38:41;;;;;;;7.22;3.25;;;11.00;99.90;;;;;;4719149;30;20294;-83
2021/05/24 01:41:09;;;;;;;6.90;2.93;;;11.10;99.90;;;;;;4735041;30;20211;-86
2021/05/24 01:43:36;;;;;;;6.60;3.38;;;11.10;99.90;;;;;;4733988;30;20192;-83
2021/05/24 01:46:02;;;;;;;7.97;3.60;;;11.00;99.90;;;;;;4719153;30;20238;-84
2021/05/24 01:48:29;;;;;;;3.93;2.60;;;11.00;99.90;;;;;;4733784;30;20222;-84
2021/05/24 01:50:55;;;;;;;3.13;2.27;;;11.00;99.90;;;;;;4735004;30;20202;-84
2021/05/24 01:53:21;;;;;;;2.15;1.95;;;10.90;99.90;;;;;;4734966;30;20184;-84
2021/05/24 01:55:47;;;;;;;16.55;9.00;;;10.80;99.90;;;;;;4734164;30;20249;-84
2021/05/24 01:58:14;;;;;;;4.13;2.20;;;10.80;99.90;;;;;;4733446;30;20270;-84
2021/05/24 02:00:40;;;;;;;3.40;2.37;;;10.90;99.90;;;;;;4719272;30;20203;-84
2021/05/24 02:03:07;;;;;;;4.72;2.03;;;10.80;99.90;;;;;;4719269;30;20215;-84
2021/05/24 02:05:34;;;;;;;5.57;1.93;;;10.80;99.90;;;;;;4718605;30;20207;-84
2021/05/24 02:08:00;;;;;;;3.40;2.28;;;10.70;99.90;;;;;;4718858;30;20629;-83
2021/05/24 02:10:28;;;;;;;4.67;2.40;;;10.70;99.90;;;;;;4742445;30;20262;-85
2021/05/24 02:12:56;;;;;;;3.87;2.00;;;10.70;99.90;;;;;;4724341;30;20282;-83
2021/05/24 02:15:25;;;;;;;3.00;2.17;;;10.70;99.90;;;;;;4737514;30;20716;-83
2021/05/24 02:17:50;;;;;;;5.00;2.37;;;10.60;99.90;;;;;;4737374;30;20191;-82
2021/05/24 02:20:23;;;;;;;2.93;2.10;;;10.60;99.90;;;;;;4737360;30;20242;-83
2021/05/24 02:22:49;;;;;;;3.87;2.10;;;10.60;99.90;;;;;;4721900;30;20195;-83
2021/05/24 02:25:15;;;;;;;3.40;1.83;;;10.50;99.90;;;;;;4737319;30;20191;-83
2021/05/24 02:27:41;;;;;;;4.87;2.40;;;10.50;99.90;;;;;;4721872;30;20229;-83
2021/05/24 02:30:09;;;;;;;2.90;2.07;;;10.50;99.90;;;;;;4721644;30;20365;-83
2021/05/24 02:32:35;;;;;;;6.33;2.50;;;10.50;99.90;;;;;;4737258;30;20195;-83
2021/05/24 02:35:01;;;;;;;3.57;2.30;;;10.50;99.90;;;;;;4737589;30;20202;-83
2021/05/24 02:37:27;;;;;;;3.67;2.43;;;10.50;99.90;;;;;;4736324;30;20208;-84
2021/05/24 02:39:52;;;;;;;3.07;2.10;;;10.50;99.90;;;;;;4736492;30;20200;-83
2021/05/24 02:42:18;;;;;;;7.87;3.13;;;10.40;99.90;;;;;;4737259;30;20206;-84
2021/05/24 02:44:44;;;;;;;8.57;3.97;;;10.40;99.90;;;;;;4736471;30;20208;-84
2021/05/24 02:47:10;;;;;;;2.63;2.23;;;10.40;99.90;;;;;;4737481;30;20646;-82
2021/05/24 02:49:36;;;;;;;5.90;2.60;;;10.40;99.90;;;;;;4736196;30;20246;-83
2021/05/24 02:52:02;;;;;;;3.93;2.70;;;10.50;99.90;;;;;;4736402;30;20218;-84
2021/05/24 02:54:28;;;;;;;4.43;2.70;;;10.40;99.90;;;;;;4737125;30;20198;-83
2021/05/24 02:56:54;;;;;;;7.70;2.90;;;10.40;99.90;;;;;;4735912;30;20195;-82
2021/05/24 02:59:19;;;;;;;5.13;2.93;;;10.30;99.90;;;;;;4721091;30;20199;-83
2021/05/24 03:01:45;;;;;;;4.37;2.67;;;10.30;99.90;;;;;;4735905;30;20215;-83
2021/05/24 03:04:11;;;;;;;3.80;2.90;;;;;;;;;;4736586;30;20555;-83
2021/05/24 03:06:37;;;;;;;10.60;3.80;;;10.20;99.90;;;;;;4720886;30;20202;-83
2021/05/24 03:09:06;;;;;;;5.43;3.30;;;10.20;99.90;;;;;;4736571;30;20311;-83
2021/05/24 03:11:32;;;;;;;7.87;3.80;;;10.20;99.90;;;;;;4721944;30;20658;-83
2021/05/24 03:13:58;;;;;;;9.60;4.60;;;;;;;;;;4738337;30;20191;-83
2021/05/24 03:16:24;;;;;;;7.23;4.33;;;10.20;99.90;;;;;;4736859;30;20270;-84
2021/05/24 03:18:50;;;;;;;8.60;4.30;;;10.30;99.90;;;;;;4736715;30;20326;-82
2021/05/24 03:21:16;;;;;;;9.23;4.20;;;10.30;99.90;;;;;;4734842;30;20251;-82
2021/05/24 03:23:42;;;;;;;7.87;4.33;;;10.20;99.90;;;;;;4736627;30;20199;-82
2021/05/24 03:26:08;;;;;;;7.50;4.40;;;10.20;99.90;;;;;;4736860;30;20198;-82
2021/05/24 03:28:34;;;;;;;8.23;5.67;;;10.10;99.90;;;;;;4735958;30;20215;-83
2021/05/24 03:30:59;;;;;;;9.07;5.90;;;10.20;99.90;;;;;;4721696;30;20676;-82
2021/05/24 03:33:25;;;;;;;5.93;4.97;;;;;;;;;;4720745;30;20270;-84
2021/05/24 03:35:51;;;;;;;7.53;5.10;;;10.20;99.90;;;;;;4721511;30;20708;-83
2021/05/24 03:38:17;;;;;;;9.27;5.27;;;10.30;99.90;;;;;;4736694;30;20275;-84
2021/05/24 03:40:42;;;;;;;8.63;4.97;;;10.40;99.90;;;;;;4737489;30;20268;-85
2021/05/24 03:43:08;;;;;;;9.17;4.67;;;10.50;99.90;;;;;;4737277;30;20203;-86
2021/05/24 03:45:36;;;;;;;8.60;5.07;;;10.40;99.90;;;;;;4748182;30;20198;-84
2021/05/24 03:48:02;;;;;;;12.63;5.20;;;10.50;99.90;;;;;;4752919;30;20196;-84
2021/05/24 03:50:28;;;;;;;10.80;5.63;;;10.80;99.90;;;;;;4737471;30;20227;-85
2021/05/24 03:52:54;;;;;;;6.50;4.70;;;10.60;99.90;;;;;;4753164;30;20673;-85
2021/05/24 03:55:20;;;;;;;9.63;4.50;;;10.80;99.90;;;;;;4747555;30;20230;-83
2021/05/24 03:57:48;;;;;;;7.73;4.80;;;10.60;99.90;;;;;;4734198;30;20191;-83
2021/05/24 04:00:15;;;;;;;8.10;5.03;;;10.80;99.90;;;;;;4716022;30;20196;-84
2021/05/24 04:02:41;;;;;;;12.80;5.60;;;10.90;99.90;;;;;;4716137;30;20195;-85
2021/05/24 04:05:16;;;;;;;8.60;4.75;;;10.80;99.90;;;;;;4719588;30;20199;-84
2021/05/24 04:07:46;;;;;;;8.27;4.83;;;11.00;99.90;;;;;;4735484;30;20183;-84
2021/05/24 04:10:12;;;;;;;8.83;5.63;;;11.10;99.90;;;;;;4732467;30;20249;-85
2021/05/24 04:12:38;;;;;;;8.90;5.95;;;11.10;99.90;;;;;;4735230;30;20222;-83
2021/05/24 04:15:04;;;;;;;10.07;6.28;;;11.10;99.90;;;;;;4719079;30;20289;-84
2021/05/24 04:17:35;;;;;;;11.85;7.28;;;11.20;99.90;;;;;;4718431;30;20245;-88
2021/05/24 04:20:01;;;;;;;10.98;7.22;;;11.10;99.90;;;;;;4718818;30;20199;-85
2021/05/24 04:22:26;;;;;;;11.45;7.20;;;11.30;99.90;;;;;;4748279;30;20221;-85
2021/05/24 04:24:52;;;;;;;10.90;7.40;;;11.40;99.90;;;;;;4724567;30;20196;-84
2021/05/24 04:27:18;;;;;;;10.80;7.45;;;11.50;99.90;;;;;;4713950;30;20199;-85
2021/05/24 04:29:43;;;;;;;11.90;7.55;;;11.50;99.90;;;;;;4718520;30;20317;-84
2021/05/24 04:32:09;;;;;;;12.93;8.32;;;11.60;99.90;;;;;;4732743;30;20203;-84
2021/05/24 04:34:34;;;;;;;12.27;7.47;;;11.70;99.90;;;;;;4689059;30;20191;-84
2021/05/24 04:37:00;;;;;;;11.10;7.78;;;11.80;99.90;;;;;;4730890;30;20207;-84
2021/05/24 04:39:26;;;;;;;12.95;7.45;;;;;;;;;;4702855;30;20203;-84
2021/05/24 04:41:52;;;;;;;13.00;7.50;;;11.90;99.90;;;;;;4702720;30;20206;-84
2021/05/24 04:44:20;;;;;;;14.55;6.90;;;12.00;99.90;;;;;;4703316;30;20199;-84
2021/05/24 04:46:46;;;;;;;9.13;6.95;;;12.00;99.90;;;;;;4733200;30;20195;-85
2021/05/24 04:49:13;;;;;;;17.70;6.60;;;12.10;99.90;;;;;;4702951;30;20219;-84
2021/05/24 04:51:39;;;;;;;13.93;7.40;;;12.20;99.90;;;;;;4730954;30;20233;-85
2021/05/24 04:54:06;;;;;;;11.48;7.28;;;12.40;99.90;;;;;;4732914;30;20218;-84
2021/05/24 04:56:35;;;;;;;17.20;8.07;;;12.40;99.90;;;;;;4731064;30;20201;-84
2021/05/24 04:59:01;;;;;;;12.75;8.50;;;12.40;99.90;;;;;;4717048;30;20249;-85
2021/05/24 05:01:27;;;;;;;15.30;8.82;;;12.50;99.90;;;;;;4700497;30;20199;-87
2021/05/24 05:03:53;;;;;;;18.33;9.70;;;;;;;;;;4700801;30;20681;-85
2021/05/24 05:06:19;;;;;;;19.30;10.48;;;12.60;99.90;;;;;;4731531;30;20610;-85
2021/05/24 05:08:45;;;;;;;15.02;10.45;;;13.00;99.90;;;;;;4732953;30;20302;-85
2021/05/24 05:11:13;;;;;;;17.52;10.68;;;12.70;99.90;;;;;;4717177;30;20206;-86
2021/05/24 05:13:39;;;;;;;18.83;10.70;;;12.40;99.90;;;;;;4702775;30;20202;-86
2021/05/24 05:16:05;;;;;;;16.83;11.77;;;12.80;99.90;;;;;;4732793;30;20275;-87
2021/05/24 05:18:31;;;;;;;16.45;11.90;;;12.90;99.90;;;;;;4733049;30;20299;-86
2021/05/24 05:20:57;;;;;;;15.65;9.50;;;;;;;;;;4733045;30;20241;-87
2021/05/24 05:23:23;;;;;;;15.43;9.63;;;12.80;99.90;;;;;;4732852;30;20219;-87
2021/05/24 05:25:48;;;;;;;13.55;8.75;;;13.10;99.90;;;;;;4733191;30;20786;-86
2021/05/24 05:28:15;;;;;;;15.27;8.48;;;13.10;99.90;;;;;;4732112;30;20678;-86
2021/05/24 05:30:41;;;;;;;11.57;7.88;;;13.20;99.90;;;;;;4718622;30;20279;-85
2021/05/24 05:33:07;;;;;;;13.52;8.38;;;13.30;99.90;;;;;;4719080;30;20626;-84
2021/05/24 05:35:34;;;;;;;15.23;8.45;;;13.40;99.90;;;;;;4704465;30;20219;-84
2021/05/24 05:38:00;;;;;;;13.48;8.27;;;13.70;99.90;;;;;;4718989;30;20191;-83
2021/05/24 05:40:27;;;;;;;12.70;7.68;;;13.30;99.90;;;;;;4718622;30;20217;-84
2021/05/24 05:42:53;;;;;;;11.10;6.35;;;13.70;99.90;;;;;;4734290;30;20184;-84
2021/05/24 05:45:19;;;;;;;9.73;5.95;;;;;;;;;;4706306;30;20712;-85
2021/05/24 05:47:45;;;;;;;9.27;6.00;;;13.70;99.90;;;;;;4722003;30;20201;-85
2021/05/24 05:50:12;;;;;;;14.43;5.70;;;14.00;99.90;;;;;;4737100;30;20215;-84
2021/05/24 05:52:38;;;;;;;6.57;4.43;;;13.50;99.90;;;;;;4738044;30;20195;-83
2021/05/24 05:55:05;;;;;;;8.32;5.03;;;14.20;99.90;;;;;;4721652;30;20669;-83
2021/05/24 05:57:31;;;;;;;10.15;5.95;;;13.80;99.90;;;;;;4721693;30;20208;-82
2021/05/24 05:59:57;;;;;;;9.20;5.60;;;;;;;;;;4737208;30;20680;-83
2021/05/24 06:02:23;;;;;;;11.45;6.03;;;;;;;;;;4737210;30;20191;-83
2021/05/24 06:04:49;;;;;;;7.65;5.65;;;;;;;;;;4737148;30;20203;-84
2021/05/24 06:07:16;;;;;;;10.27;6.28;;;14.20;99.90;;;;;;4737288;30;20669;-83
2021/05/24 06:09:43;;;;;;;9.27;5.57;;;14.20;99.90;;;;;;4721601;30;20262;-83
2021/05/24 06:12:09;;;;;;;12.25;6.55;;;14.20;99.90;;;;;;4721519;30;20202;-84
2021/05/24 06:14:36;;;;;;;7.32;5.18;;;14.20;99.90;;;;;;4707166;30;20195;-83
2021/05/24 06:17:02;;;;;;;7.97;5.22;;;;;;;;;;4736768;30;20218;-83
2021/05/24 06:19:28;;;;;;;7.72;4.10;;;14.40;99.90;;;;;;4736727;30;20642;-85
2021/05/24 06:21:54;;;;;;;8.25;4.13;;;;;;;;;;4736969;30;20239;-84
2021/05/24 06:24:20;;;;;;;9.63;4.25;;;15.00;99.90;;;;;;4737021;30;20198;-85
2021/05/24 06:26:46;;;;;;;8.68;4.05;;;;;;;;;;4706712;30;20551;-84
2021/05/24 06:29:12;;;;;;;5.93;3.63;;;;;;;;;;4721649;30;20694;-84
2021/05/24 06:31:42;;;;;;;5.38;2.72;;;;;;;;;;4721077;30;20199;-85
2021/05/24 06:34:08;;;;;;;4.88;3.10;;;;;;;;;;4720225;30;20202;-84
2021/05/24 06:36:33;;;;;;;6.40;3.90;;;15.30;99.90;;;;;;4736662;30;20191;-84
2021/05/24 06:38:59;;;;;;;6.15;3.58;;;;;;;;;;4720329;30;20630;-84
2021/05/24 06:41:25;;;;;;;4.68;3.03;;;15.20;99.90;;;;;;4719757;30;20499;-84
2021/05/24 06:43:51;;;;;;;6.32;3.80;;;;;;;;;;4736134;30;20192;-86
2021/05/24 06:46:17;;;;;;;7.38;4.43;;;15.70;99.90;;;;;;4721119;30;20658;-84
2021/05/24 06:48:43;;;;;;;5.57;3.67;;;;;;;;;;4720623;30;20298;-83
2021/05/24 06:51:08;;;;;;;5.38;3.70;;;16.30;99.90;;;;;;4736029;30;20187;-84
2021/05/24 06:53:34;;;;;;;5.60;4.05;;;;;;;;;;4720628;30;20664;-85
2021/05/24 06:56:00;;;;;;;7.32;4.30;;;15.70;99.90;;;;;;4720754;30;20227;-84
2021/05/24 06:58:26;;;;;;;13.52;4.40;;;16.40;99.90;;;;;;4736918;30;20677;-84
2021/05/24 07:00:51;;;;;;;7.75;5.00;;;15.90;99.90;;;;;;4706364;30;20723;-84
2021/05/24 07:03:18;;;;;;;7.75;5.15;;;;;;;;;;4691462;30;20712;-84
2021/05/24 07:05:43;;;;;;;9.07;4.80;;;16.10;99.90;;;;;;4720639;30;20195;-84
2021/05/24 07:08:09;;;;;;;13.32;5.03;;;;;;;;;;4736076;30;20195;-85
2021/05/24 07:10:35;;;;;;;6.60;5.15;;;15.80;99.90;;;;;;4706590;30;20223;-85
2021/05/24 07:13:01;;;;;;;7.60;4.32;;;;;;;;;;4720150;30;20199;-86
2021/05/24 07:15:27;;;;;;;7.25;5.25;;;16.20;99.90;;;;;;4720514;30;20223;-85
2021/05/24 07:17:55;;;;;;;8.32;4.95;;;;;;;;;;4705906;30;20191;-85
2021/05/24 07:20:21;;;;;;;7.63;4.63;;;16.50;99.90;;;;;;4735501;30;20235;-85
2021/05/24 07:22:47;;;;;;;7.50;5.05;;;16.00;99.90;;;;;;4720435;30;20180;-85
2021/05/24 07:25:13;;;;;;;8.13;5.03;;;16.10;99.90;;;;;;4735470;30;20195;-85
2021/05/24 07:27:38;;;;;;;6.05;4.22;;;16.50;99.90;;;;;;4740006;30;20190;-82
2021/05/24 07:30:05;;;;;;;8.05;4.63;;;17.20;99.90;;;;;;4722421;30;20717;-86
2021/05/24 07:32:31;;;;;;;5.20;4.30;;;17.10;99.90;;;;;;4735927;30;20270;-85
2021/05/24 07:34:57;;;;;;;9.93;3.92;;;;;;;;;;4735557;30;20674;-85
2021/05/24 07:37:22;;;;;;;15.07;4.47;;;17.10;99.90;;;;;;4735336;30;20190;-85
2021/05/24 07:39:48;;;;;;;5.53;3.97;;;;;;;;;;4735571;30;20218;-87
2021/05/24 07:42:14;;;;;;;5.78;3.83;;;17.70;99.90;;;;;;4735847;30;20268;-86
2021/05/24 07:44:40;;;;;;;6.53;3.53;;;17.10;99.90;;;;;;4721042;30;20195;-84
2021/05/24 07:47:07;;;;;;;4.72;3.55;;;17.50;99.90;;;;;;4705888;30;20204;-86
2021/05/24 07:49:33;;;;;;;4.47;2.58;;;16.90;99.90;;;;;;4705891;30;20249;-85
2021/05/24 07:51:59;;;;;;;2.97;2.53;;;16.70;99.90;;;;;;4720183;30;20191;-84
2021/05/24 07:54:25;;;;;;;3.85;2.55;;;;;;;;;;4705539;30;20268;-85
2021/05/24 07:56:51;;;;;;;6.22;2.80;;;16.50;99.90;;;;;;4735931;30;20264;-85
2021/05/24 07:59:17;;;;;;;4.78;2.75;;;;;;;;;;4720012;30;20278;-85
2021/05/24 08:01:42;;;;;;;3.05;2.50;;;16.60;99.90;;;;;;4705971;30;20233;-87
2021/05/24 08:04:09;;;;;;;3.30;2.40;;;17.20;99.90;;;;;;4719757;30;20586;-85
2021/05/24 08:06:35;;;;;;;4.28;2.50;;;;;;;;;;4719837;30;20199;-86
2021/05/24 08:09:02;;;;;;;6.28;3.22;;;17.60;99.90;;;;;;4734941;30;20215;-84
2021/05/24 08:11:27;;;;;;;6.40;2.50;;;17.40;99.90;;;;;;4704689;30;20195;-84
2021/05/24 08:13:54;;;;;;;3.20;2.50;;;;;;;;;;4704956;30;20255;-85
2021/05/24 08:16:21;;;;;;;5.63;2.08;;;17.10;99.90;;;;;;4734755;30;20188;-85
2021/05/24 08:18:47;;;;;;;4.97;2.30;;;17.00;99.90;;;;;;4723450;30;20191;-85
2021/05/24 08:21:13;;;;;;;3.42;1.77;;;17.20;99.90;;;;;;4727346;30;20598;-85
2021/05/24 08:23:42;;;;;;;4.40;1.75;;;16.80;99.90;;;;;;4719953;30;20674;-85
2021/05/24 08:26:08;;;;;;;3.88;1.90;;;;;;;;;;4717327;30;20188;-85
2021/05/24 08:28:34;;;;;;;5.28;1.80;;;;;;;;;;4717529;30;20271;-84
2021/05/24 08:31:01;;;;;;;2.70;1.60;;;;;;;;;;4702052;30;20239;-84
2021/05/24 08:33:27;;;;;;;4.13;1.50;;;17.10;99.90;;;;;;4702324;30;20326;-85
2021/05/24 08:35:53;;;;;;;5.47;1.13;;;17.30;99.90;;;;;;4718066;30;20279;-85
2021/05/24 08:38:19;;;;;;;3.78;1.15;;;;;;;;;;4731521;30;20291;-86
2021/05/24 08:40:46;;;;;;;3.60;1.40;;;18.00;99.90;;;;;;4702622;30;20223;-85
2021/05/24 08:43:14;;;;;;;1.70;1.00;;;17.40;95.90;;;;;;4687604;30;20216;-85
2021/05/24 08:45:40;;;;;;;2.17;1.25;;;17.60;99.90;;;;;;4717770;30;20191;-86
2021/05/24 08:48:07;;;;;;;5.72;1.13;;;18.10;99.90;;;;;;4688506;30;20196;-86
2021/05/24 08:50:34;;;;;;;1.42;0.95;;;18.30;99.90;;;;;;4687935;30;20231;-86
2021/05/24 08:52:59;;;;;;;5.93;1.00;;;17.80;99.20;;;;;;4717670;30;20188;-85
2021/05/24 08:55:25;;;;;;;3.05;1.13;;;;;;;;;;4701925;30;20270;-86
2021/05/24 08:57:51;;;;;;;1.23;1.00;;;18.00;98.40;;;;;;4702092;30;20623;-84
2021/05/24 09:00:19;;;;;;;3.03;0.80;;;18.40;97.80;;;;;;4715967;30;20283;-85
2021/05/24 09:02:53;;;;;;;2.05;1.00;;;18.20;97.90;;;;;;4701639;30;20200;-83
2021/05/24 09:05:20;;;;;;;1.92;1.08;;;17.80;99.60;;;;;;4717111;30;20669;-85
2021/05/24 09:07:51;;;;;;;5.05;1.17;;;18.00;98.50;;;;;;4701941;30;20531;-84
2021/05/24 09:10:18;;;;;;;1.48;1.10;;;18.30;99.10;;;;;;4701209;30;20228;-85
2021/05/24 09:12:44;;;;;;;4.65;1.10;;;18.50;99.90;;;;;;4701855;30;20188;-84
2021/05/24 09:15:14;;;;;;;1.85;1.13;;;18.70;99.30;;;;;;4717428;30;20202;-83
2021/05/24 09:17:48;;;;;;;2.95;1.10;;;18.50;94.70;;;;;;4717694;30;20263;-84
2021/05/24 09:20:19;;;;;;;1.58;1.20;;;18.20;96.70;;;;;;4720695;30;20584;-84
2021/05/24 09:23:20;;;;;;;2.33;0.90;;;18.10;92.80;;;;;;4737793;30;20179;-84
2021/05/24 09:25:53;;;;;;;6.78;0.98;;;18.00;91.30;;;;;;4720628;30;20195;-85
2021/05/24 09:28:40;;;;;;;1.35;0.77;;;18.30;91.00;;;;;;4735987;30;20374;-86
2021/05/24 09:31:10;;;;;;;4.20;0.80;;;17.90;93.80;;;;;;4736381;30;20195;-85
2021/05/24 09:33:38;;;;;;;1.70;0.85;;;18.30;89.20;;;;;;4736372;30;20191;-86
2021/05/24 09:36:05;;;;;;;3.22;0.95;;;18.90;88.40;;;;;;4736272;30;20188;-86
2021/05/24 09:38:42;;;;;;;1.27;0.80;;;19.00;89.60;;;;;;4736368;30;20190;-86
2021/05/24 09:41:10;;;;;;;1.50;0.98;;;19.20;94.30;;;;;;4721772;30;20600;-84
2021/05/24 09:43:44;;;;;;;1.58;0.90;;;19.60;92.70;;;;;;4736870;30;20644;-83
2021/05/24 09:46:12;;;;;;;4.78;2.58;;;19.90;95.10;;;;;;4738364;30;20188;-83
2021/05/24 09:48:39;;;;;;;2.47;1.10;;;19.50;93.80;;;;;;4721869;30;20219;-84
2021/05/24 09:51:10;;;;;;;2.80;0.80;;;19.30;91.20;;;;;;4737848;30;20187;-85
2021/05/24 09:53:37;;;;;;;0.75;0.60;;;19.20;90.70;;;;;;4737701;30;20213;-85
2021/05/24 09:56:05;;;;;;;1.25;0.80;;;19.70;90.60;;;;;;4737682;30;20660;-85
2021/05/24 09:58:31;;;;;;;2.83;0.57;;;19.70;90.20;;;;;;4721767;30;20702;-85
2021/05/24 10:03:46;;;;;;;1.08;0.70;;;19.20;91.70;;;;;;4724363;30;20735;-84
2021/05/24 10:06:12;;;;;;;3.58;0.85;;;19.40;92.80;;;;;;4737288;30;20187;-85
2021/05/24 10:08:40;;;;;;;2.40;0.80;;;19.40;92.30;;;;;;4737715;30;20211;-85
2021/05/24 10:11:06;;;;;;;1.15;0.90;;;19.50;86.80;;;;;;4722384;30;20647;-84
2021/05/24 10:13:32;;;;;;;4.57;1.00;;;19.30;91.90;;;;;;4737604;30;20279;-86
2021/05/24 10:16:02;;;;;;;2.40;0.75;;;;;;;;;;4737799;30;20206;-85
2021/05/24 10:18:30;;;;;;;0.98;0.70;;;19.20;91.30;;;;;;4721536;30;20199;-84
2021/05/24 10:20:59;;;;;;;1.30;0.90;;;18.10;91.60;;;;;;4718753;30;20301;-84
2021/05/24 10:23:29;;;;;;;1.23;0.73;;;18.60;92.30;;;;;;4734368;30;20257;-85
2021/05/24 10:25:58;;;;;;;10.52;1.27;;;18.60;92.10;;;;;;4716275;30;20192;-85
2021/05/24 10:28:26;;;;;;;0.95;0.80;;;18.80;90.40;;;;;;4726719;30;20187;-84
2021/05/24 10:30:52;;;;;;;1.25;0.90;;;18.80;91.70;;;;;;4706831;30;20682;-84
2021/05/24 10:33:19;;;;;;;3.83;0.80;;;18.70;92.50;;;;;;4682707;30;20196;-84
2021/05/24 10:35:47;;;;;;;1.75;0.73;;;19.00;92.30;;;;;;4706955;30;20221;-85
2021/05/24 10:38:32;;;;;;;1.67;0.80;;;18.90;82.20;;;;;;4721591;30;20192;-83
2021/05/24 10:41:16;;;;;;;2.05;0.70;;;19.10;91.70;;;;;;4721540;30;20711;-83
2021/05/24 10:43:56;;;;;;;1.27;0.80;;;19.00;91.90;;;;;;4711258;30;20188;-83
2021/05/24 10:46:31;;;;;;;1.45;0.90;;;19.40;92.10;;;;;;4696836;30;20564;-85
2021/05/24 10:49:04;;;;;;;0.80;0.80;;;19.00;81.70;;;;;;4719654;30;20230;-85
2021/05/24 10:51:45;;;;;;;4.97;0.70;;;18.70;91.20;;;;;;4726947;30;20187;-83
2021/05/24 10:54:20;;;;;;;10.13;1.00;;;18.70;82.70;;;;;;4728560;30;20187;-83
2021/05/24 10:57:04;;;;;;;1.85;0.93;;;19.00;92.10;;;;;;4728286;30;20242;-83
2021/05/24 10:59:43;;;;;;;2.38;0.70;;;19.00;81.30;;;;;;4724935;30;20681;-88
2021/05/24 11:02:13;;;;;;;3.75;0.75;;;18.90;90.40;;;;;;4727886;30;20183;-84
2021/05/24 11:04:55;;;;;;;1.20;0.70;;;18.70;91.30;;;;;;4727593;30;20267;-83
2021/05/24 11:07:26;;;;;;;2.17;0.70;;;18.80;80.20;;;;;;4726607;30;20230;-87
2021/05/24 11:09:52;;;;;;;1.15;0.70;;;18.50;90.70;;;;;;4708332;30;20694;-84
2021/05/24 11:12:30;;;;;;;2.08;0.68;;;18.70;80.30;;;;;;4727831;30;20203;-85
2021/05/24 11:15:13;;;;;;;3.97;0.85;;;18.90;92.20;;;;;;4727711;30;20246;-84
2021/05/24 11:17:58;;;;;;;4.30;0.85;;;19.20;90.80;;;;;;4722001;30;20193;-85
2021/05/24 11:20:51;;;;;;;1.15;0.70;;;19.20;78.00;;;;;;4725262;30;20690;-85
2021/05/24 11:26:16;;;;;;;0.70;0.60;;;19.50;82.80;;;;;;4720179;30;20305;-85
2021/05/24 11:28:58;;;;;;;5.05;0.75;;;19.10;87.20;;;;;;4709836;30;20202;-86
2021/05/24 11:31:46;;;;;;;1.88;0.82;;;19.80;86.70;;;;;;4710362;30;20220;-85
2021/05/24 11:34:36;;;;;;;7.88;1.10;;;19.10;79.90;;;;;;4708865;30;20194;-85
2021/05/24 11:37:09;;;;;;;4.43;1.15;;;18.70;89.70;;;;;;4710870;30;20290;-85
2021/05/24 11:39:37;;;;;;;5.32;0.90;;;19.10;81.50;;;;;;4711346;30;20187;-85
2021/05/24 11:42:07;;;;;;;3.92;0.73;;;19.60;85.80;;;;;;4712139;30;20195;-86
2021/05/24 11:44:46;;;;;;;1.80;0.70;;;19.30;77.10;;;;;;4729354;30;20180;-85
2021/05/24 11:47:19;;;;;;;1.90;0.93;;;19.50;79.00;;;;;;4717418;30;20292;-88
2021/05/24 11:49:53;;;;;;;4.88;0.75;;;18.80;80.10;;;;;;4669387;30;20220;-85
2021/05/24 11:52:22;;;;;;;1.23;0.80;;;19.00;86.90;;;;;;4700827;30;20199;-84
2021/05/24 11:54:49;;;;;;;2.03;0.68;;;19.30;89.10;;;;;;4711431;30;20289;-84
2021/05/24 11:57:18;;;;;;;1.33;0.80;;;18.90;89.70;;;;;;4718174;30;20200;-84
2021/05/24 11:59:44;;;;;;;0.65;0.60;;;;;;;;;;4718782;30;20183;-84
2021/05/24 12:02:10;;;;;;;1.38;0.98;;;19.50;86.60;;;;;;4701301;30;20673;-85
2021/05/24 12:04:38;;;;;;;1.73;0.80;;;19.60;76.50;;;;;;4700506;30;20196;-86
2021/05/24 12:07:11;;;;;;;1.83;0.63;;;19.60;79.00;;;;;;4716523;30;20544;-84
2021/05/24 12:09:53;;;;;;;1.00;0.90;;;19.60;86.10;;;;;;4713986;30;20220;-84
2021/05/24 12:12:24;;;;;;;1.02;0.65;;;19.30;85.00;;;;;;4693458;30;20255;-86
2021/05/24 12:14:56;;;;;;;11.70;2.30;;;19.60;76.20;;;;;;4724448;30;20200;-84
2021/05/24 12:17:23;;;;;;;6.78;0.82;;;19.70;82.60;;;;;;4713438;30;20203;-85
2021/05/24 12:19:54;;;;;;;6.97;1.17;;;19.50;76.50;;;;;;4697447;30;20287;-85
2021/05/24 12:22:24;;;;;;;1.55;1.08;;;19.40;79.10;;;;;;4715028;30;20211;-85
2021/05/24 12:24:50;;;;;;;3.83;0.70;;;19.40;77.10;;;;;;4731510;30;20616;-85
2021/05/24 12:27:18;;;;;;;1.33;0.70;;;19.20;76.40;;;;;;4732089;30;20278;-85
2021/05/24 12:30:13;;;;;;;3.85;0.88;;;19.10;77.40;;;;;;4732282;30;20218;-85
2021/05/24 12:32:42;;;;;;;2.35;0.93;;;19.00;77.80;;;;;;4717315;30;20578;-83
2021/05/24 12:35:14;;;;;;;2.72;1.10;;;19.10;81.80;;;;;;4733133;30;20564;-84
2021/05/24 12:37:49;;;;;;;18.98;3.60;;;19.20;80.00;;;;;;4733880;30;20203;-84
2021/05/24 12:40:16;;;;;;;3.53;1.13;;;19.40;82.60;;;;;;4717905;30;20661;-85
2021/05/24 12:42:42;;;;;;;2.75;0.88;;;19.50;76.80;;;;;;4733773;30;20531;-84
2021/05/24 12:45:11;;;;;;;2.75;1.15;;;19.60;79.90;;;;;;4732382;30;20194;-84
2021/05/24 12:47:37;;;;;;;1.80;0.95;;;19.70;77.60;;;;;;4733250;30;20219;-83
2021/05/24 12:50:11;;;;;;;2.67;1.35;;;19.80;80.20;;;;;;4717222;30;20211;-85
2021/05/24 12:52:37;;;;;;;2.35;1.00;;;19.80;79.10;;;;;;4713349;30;20246;-85
2021/05/24 12:55:15;;;;;;;2.30;1.08;;;19.90;79.20;;;;;;4717487;30;20196;-84
2021/05/24 12:57:46;;;;;;;1.85;1.15;;;19.90;79.80;;;;;;4717228;30;20195;-85
2021/05/24 13:00:13;;;;;;;3.60;1.20;;;20.00;79.10;;;;;;4727776;30;20195;-84
2021/05/24 13:02:40;;;;;;;8.30;1.67;;;20.20;79.40;;;;;;4703459;30;20206;-87
2021/05/24 13:05:13;;;;;;;5.65;1.20;;;20.20;79.40;;;;;;4718368;30;20180;-85
2021/05/24 13:07:57;;;;;;;7.97;1.17;;;20.20;78.40;;;;;;4732727;30;20222;-87